sensor_id;sensor_type;location;lat;lon;timestamp;pressure;altitude;pressure_sealevel;temperature;humidity
21828;BME280;11076;47.942;11.804;2023-12-20T00:03:28;94261.25;;;3.28;32.69
21828;BME280;11076;47.942;11.804;2023-12-20T00:08:34;94252.78;;;3.19;32.87
21828;BME280;11076;47.942;11.804;2023-12-20T00:13:37;94234.50;;;3.21;33.01
21828;BME280;11076;47.942;11.804;2023-12-20T00:18:39;94229.38;;;3.20;33.14
21828;BME280;11076;47.942;11.804;2023-12-20T00:23:42;94231.00;;;3.21;33.05
21828;BME280;11076;47.942;11.804;2023-12-20T00:28:44;94223.63;;;3.11;33.05
21828;BME280;11076;47.942;11.804;2023-12-20T00:33:47;94226.00;;;3.07;33.47
21828;BME280;11076;47.942;11.804;2023-12-20T00:38:49;94201.09;;;3.71;32.65
21828;BME280;11076;47.942;11.804;2023-12-20T00:43:53;94207.22;;;3.40;32.85
21828;BME280;11076;47.942;11.804;2023-12-20T00:48:56;94197.44;;;3.56;32.67
21828;BME280;11076;47.942;11.804;2023-12-20T00:53:58;94192.25;;;3.49;33.05
21828;BME280;11076;47.942;11.804;2023-12-20T00:59:00;94202.56;;;3.57;33.08
21828;BME280;11076;47.942;11.804;2023-12-20T01:04:03;94192.97;;;3.39;33.20
21828;BME280;11076;47.942;11.804;2023-12-20T01:09:05;94185.94;;;3.11;33.80
21828;BME280;11076;47.942;11.804;2023-12-20T01:14:08;94179.41;;;3.07;33.75
21828;BME280;11076;47.942;11.804;2023-12-20T01:19:10;94170.41;;;3.18;33.96
21828;BME280;11076;47.942;11.804;2023-12-20T01:24:13;94161.03;;;2.99;34.16
21828;BME280;11076;47.942;11.804;2023-12-20T01:29:15;94163.66;;;2.94;34.07
21828;BME280;11076;47.942;11.804;2023-12-20T01:34:18;94151.38;;;3.03;34.02
21828;BME280;11076;47.942;11.804;2023-12-20T01:39:20;94143.06;;;3.04;34.14
21828;BME280;11076;47.942;11.804;2023-12-20T01:44:25;94128.28;;;3.07;33.92
21828;BME280;11076;47.942;11.804;2023-12-20T01:49:29;94126.59;;;3.01;34.37
21828;BME280;11076;47.942;11.804;2023-12-20T01:54:31;94121.22;;;3.01;34.36
21828;BME280;11076;47.942;11.804;2023-12-20T01:59:34;94125.66;;;3.12;34.53
21828;BME280;11076;47.942;11.804;2023-12-20T02:04:37;94112.84;;;3.24;34.17
21828;BME280;11076;47.942;11.804;2023-12-20T02:09:40;94110.63;;;3.21;34.22
21828;BME280;11076;47.942;11.804;2023-12-20T02:14:42;94090.75;;;3.22;34.20
21828;BME280;11076;47.942;11.804;2023-12-20T02:19:45;94088.59;;;3.24;34.04
21828;BME280;11076;47.942;11.804;2023-12-20T02:24:47;94074.91;;;3.31;34.10
21828;BME280;11076;47.942;11.804;2023-12-20T02:29:50;94071.91;;;3.27;34.34
21828;BME280;11076;47.942;11.804;2023-12-20T02:34:53;94066.53;;;3.27;34.10
21828;BME280;11076;47.942;11.804;2023-12-20T02:39:55;94063.44;;;3.41;33.82
21828;BME280;11076;47.942;11.804;2023-12-20T02:44:58;94062.06;;;3.38;34.01
21828;BME280;11076;47.942;11.804;2023-12-20T02:50:00;94057.78;;;3.42;33.75
21828;BME280;11076;47.942;11.804;2023-12-20T02:55:03;94034.28;;;3.38;34.05
21828;BME280;11076;47.942;11.804;2023-12-20T03:00:06;94044.25;;;3.37;33.91
21828;BME280;11076;47.942;11.804;2023-12-20T03:05:09;94030.69;;;3.54;33.51
21828;BME280;11076;47.942;11.804;2023-12-20T03:10:12;94038.16;;;3.47;33.70
21828;BME280;11076;47.942;11.804;2023-12-20T03:15:16;94039.25;;;3.51;33.75
21828;BME280;11076;47.942;11.804;2023-12-20T03:20:18;94025.00;;;3.50;33.58
21828;BME280;11076;47.942;11.804;2023-12-20T03:25:20;94038.28;;;3.67;33.68
21828;BME280;11076;47.942;11.804;2023-12-20T03:30:23;94026.41;;;3.63;33.80
21828;BME280;11076;47.942;11.804;2023-12-20T03:35:27;94025.34;;;3.64;33.74
21828;BME280;11076;47.942;11.804;2023-12-20T03:40:29;94029.31;;;3.89;33.43
21828;BME280;11076;47.942;11.804;2023-12-20T03:45:32;94026.84;;;4.35;32.94
21828;BME280;11076;47.942;11.804;2023-12-20T03:50:34;94031.69;;;4.28;32.94
21828;BME280;11076;47.942;11.804;2023-12-20T03:55:37;94031.50;;;4.50;32.92
21828;BME280;11076;47.942;11.804;2023-12-20T04:00:39;94039.84;;;4.43;33.27
21828;BME280;11076;47.942;11.804;2023-12-20T04:05:42;94038.72;;;4.34;33.79
21828;BME280;11076;47.942;11.804;2023-12-20T04:10:44;94056.03;;;4.43;33.95
21828;BME280;11076;47.942;11.804;2023-12-20T04:15:47;94058.69;;;4.38;34.41
21828;BME280;11076;47.942;11.804;2023-12-20T04:20:50;94064.44;;;4.52;34.57
21828;BME280;11076;47.942;11.804;2023-12-20T04:25:54;94070.38;;;4.54;35.27
21828;BME280;11076;47.942;11.804;2023-12-20T04:30:56;94069.84;;;4.62;35.26
21828;BME280;11076;47.942;11.804;2023-12-20T04:35:59;94075.47;;;4.45;35.85
21828;BME280;11076;47.942;11.804;2023-12-20T04:41:02;94089.31;;;4.69;35.86
21828;BME280;11076;47.942;11.804;2023-12-20T04:46:05;94088.91;;;4.40;36.62
21828;BME280;11076;47.942;11.804;2023-12-20T04:51:07;94073.97;;;4.75;36.91
21828;BME280;11076;47.942;11.804;2023-12-20T04:56:10;94082.03;;;4.70;38.25
21828;BME280;11076;47.942;11.804;2023-12-20T05:01:12;94089.63;;;4.78;38.30
21828;BME280;11076;47.942;11.804;2023-12-20T05:06:15;94098.34;;;3.90;40.28
21828;BME280;11076;47.942;11.804;2023-12-20T05:11:17;94106.16;;;4.34;39.71
21828;BME280;11076;47.942;11.804;2023-12-20T05:16:20;94106.16;;;4.39;40.16
21828;BME280;11076;47.942;11.804;2023-12-20T05:21:23;94100.34;;;4.10;41.23
21828;BME280;11076;47.942;11.804;2023-12-20T05:26:25;94113.94;;;4.25;41.34
21828;BME280;11076;47.942;11.804;2023-12-20T05:31:27;94132.41;;;4.06;41.87
21828;BME280;11076;47.942;11.804;2023-12-20T05:36:30;94139.47;;;4.60;41.27
21828;BME280;11076;47.942;11.804;2023-12-20T05:41:33;94149.63;;;4.38;41.76
21828;BME280;11076;47.942;11.804;2023-12-20T05:46:36;94152.13;;;4.49;41.64
21828;BME280;11076;47.942;11.804;2023-12-20T05:51:38;94164.50;;;4.50;41.74
21828;BME280;11076;47.942;11.804;2023-12-20T05:56:41;94171.00;;;4.55;41.77
21828;BME280;11076;47.942;11.804;2023-12-20T06:01:43;94175.84;;;4.47;42.13
21828;BME280;11076;47.942;11.804;2023-12-20T06:06:46;94187.50;;;4.21;43.09
21828;BME280;11076;47.942;11.804;2023-12-20T06:11:48;94191.19;;;4.47;42.49
21828;BME280;11076;47.942;11.804;2023-12-20T06:16:51;94188.47;;;4.04;43.23
21828;BME280;11076;47.942;11.804;2023-12-20T06:21:53;94198.22;;;4.10;43.28
21828;BME280;11076;47.942;11.804;2023-12-20T06:26:56;94197.84;;;3.97;43.18
21828;BME280;11076;47.942;11.804;2023-12-20T06:31:58;94202.75;;;3.73;43.79
21828;BME280;11076;47.942;11.804;2023-12-20T06:37:00;94209.00;;;3.78;43.46
21828;BME280;11076;47.942;11.804;2023-12-20T06:42:03;94208.03;;;3.62;43.99
21828;BME280;11076;47.942;11.804;2023-12-20T06:47:05;94223.16;;;3.41;44.54
21828;BME280;11076;47.942;11.804;2023-12-20T06:52:08;94228.16;;;3.55;43.94
21828;BME280;11076;47.942;11.804;2023-12-20T06:57:10;94252.16;;;3.56;43.89
21828;BME280;11076;47.942;11.804;2023-12-20T07:02:13;94253.66;;;3.47;44.16
21828;BME280;11076;47.942;11.804;2023-12-20T07:07:15;94265.94;;;3.38;44.03
21828;BME280;11076;47.942;11.804;2023-12-20T07:12:18;94268.25;;;3.51;43.80
21828;BME280;11076;47.942;11.804;2023-12-20T07:17:21;94277.56;;;3.65;43.41
21828;BME280;11076;47.942;11.804;2023-12-20T07:22:24;94268.91;;;3.63;43.56
21828;BME280;11076;47.942;11.804;2023-12-20T07:27:27;94294.19;;;3.35;44.06
21828;BME280;11076;47.942;11.804;2023-12-20T07:32:29;94306.09;;;3.39;44.07
21828;BME280;11076;47.942;11.804;2023-12-20T07:37:31;94300.69;;;3.17;44.14
21828;BME280;11076;47.942;11.804;2023-12-20T07:42:34;94319.31;;;3.41;43.66
21828;BME280;11076;47.942;11.804;2023-12-20T07:47:36;94306.22;;;3.27;43.83
21828;BME280;11076;47.942;11.804;2023-12-20T07:52:39;94296.53;;;3.26;44.03
21828;BME280;11076;47.942;11.804;2023-12-20T07:57:41;94303.03;;;3.30;43.92
21828;BME280;11076;47.942;11.804;2023-12-20T08:02:44;94307.38;;;2.93;44.56
21828;BME280;11076;47.942;11.804;2023-12-20T08:07:46;94304.13;;;2.90;44.74
21828;BME280;11076;47.942;11.804;2023-12-20T08:12:48;94312.03;;;3.19;44.35
21828;BME280;11076;47.942;11.804;2023-12-20T08:17:51;94314.31;;;2.88;44.66
21828;BME280;11076;47.942;11.804;2023-12-20T08:22:53;94314.34;;;3.10;44.27
21828;BME280;11076;47.942;11.804;2023-12-20T08:27:56;94317.19;;;3.21;44.10
21828;BME280;11076;47.942;11.804;2023-12-20T08:33:01;94325.66;;;2.90;44.20
21828;BME280;11076;47.942;11.804;2023-12-20T08:38:04;94332.31;;;3.05;44.22
21828;BME280;11076;47.942;11.804;2023-12-20T08:43:07;94335.91;;;3.10;44.03
21828;BME280;11076;47.942;11.804;2023-12-20T08:48:09;94340.28;;;3.17;43.76
21828;BME280;11076;47.942;11.804;2023-12-20T08:53:12;94341.28;;;2.94;44.22
21828;BME280;11076;47.942;11.804;2023-12-20T08:58:14;94346.09;;;2.91;44.35
21828;BME280;11076;47.942;11.804;2023-12-20T09:03:17;94349.28;;;3.05;44.10
21828;BME280;11076;47.942;11.804;2023-12-20T09:08:19;94342.44;;;3.37;43.72
21828;BME280;11076;47.942;11.804;2023-12-20T09:13:21;94343.06;;;3.44;43.40
21828;BME280;11076;47.942;11.804;2023-12-20T09:18:28;94346.47;;;3.17;43.90
21828;BME280;11076;47.942;11.804;2023-12-20T09:23:31;94348.38;;;3.39;43.36
21828;BME280;11076;47.942;11.804;2023-12-20T09:28:33;94342.13;;;3.77;43.12
21828;BME280;11076;47.942;11.804;2023-12-20T09:33:39;94346.41;;;3.73;42.84
21828;BME280;11076;47.942;11.804;2023-12-20T09:38:41;94349.13;;;4.00;42.35
21828;BME280;11076;47.942;11.804;2023-12-20T09:43:44;94334.56;;;4.01;42.65
21828;BME280;11076;47.942;11.804;2023-12-20T09:48:47;94339.47;;;4.04;42.30
21828;BME280;11076;47.942;11.804;2023-12-20T09:53:50;94324.91;;;4.33;42.17
21828;BME280;11076;47.942;11.804;2023-12-20T09:58:57;94320.03;;;4.62;41.80
21828;BME280;11076;47.942;11.804;2023-12-20T10:04:00;94325.31;;;4.19;42.16
21828;BME280;11076;47.942;11.804;2023-12-20T10:09:03;94320.88;;;4.35;42.21
21828;BME280;11076;47.942;11.804;2023-12-20T10:14:06;94318.31;;;4.50;42.01
21828;BME280;11076;47.942;11.804;2023-12-20T10:19:09;94322.03;;;4.44;42.28
21828;BME280;11076;47.942;11.804;2023-12-20T10:24:17;94309.19;;;4.57;42.14
21828;BME280;11076;47.942;11.804;2023-12-20T10:29:19;94310.16;;;4.40;42.05
21828;BME280;11076;47.942;11.804;2023-12-20T10:34:22;94305.69;;;4.24;42.07
21828;BME280;11076;47.942;11.804;2023-12-20T10:39:24;94304.53;;;4.47;42.20
21828;BME280;11076;47.942;11.804;2023-12-20T10:44:27;94287.59;;;4.57;42.06
21828;BME280;11076;47.942;11.804;2023-12-20T10:49:30;94286.75;;;4.51;42.06
21828;BME280;11076;47.942;11.804;2023-12-20T10:54:34;94288.06;;;4.43;42.09
21828;BME280;11076;47.942;11.804;2023-12-20T10:59:37;94286.91;;;4.72;42.12
21828;BME280;11076;47.942;11.804;2023-12-20T11:10:15;94277.34;;;4.91;41.55
21828;BME280;11076;47.942;11.804;2023-12-20T11:15:20;94266.97;;;4.78;41.83
21828;BME280;11076;47.942;11.804;2023-12-20T11:20:24;94258.72;;;4.95;41.89
21828;BME280;11076;47.942;11.804;2023-12-20T11:25:26;94253.81;;;4.81;41.88
21828;BME280;11076;47.942;11.804;2023-12-20T11:30:40;94254.72;;;5.02;41.52
21828;BME280;11076;47.942;11.804;2023-12-20T11:35:45;94251.28;;;5.17;41.24
21828;BME280;11076;47.942;11.804;2023-12-20T11:40:49;94258.22;;;5.03;41.43
21828;BME280;11076;47.942;11.804;2023-12-20T11:45:52;94261.16;;;4.91;41.63
21828;BME280;11076;47.942;11.804;2023-12-20T11:50:55;94254.28;;;4.78;41.63
21828;BME280;11076;47.942;11.804;2023-12-20T11:55:57;94244.03;;;4.80;41.67
21828;BME280;11076;47.942;11.804;2023-12-20T12:01:00;94242.50;;;4.89;41.51
21828;BME280;11076;47.942;11.804;2023-12-20T12:06:04;94246.66;;;5.13;41.50
21828;BME280;11076;47.942;11.804;2023-12-20T12:11:07;94247.97;;;5.05;41.62
21828;BME280;11076;47.942;11.804;2023-12-20T12:16:10;94234.91;;;4.81;41.86
21828;BME280;11076;47.942;11.804;2023-12-20T12:21:19;94226.81;;;4.86;42.05
21828;BME280;11076;47.942;11.804;2023-12-20T12:26:24;94234.72;;;4.98;41.42
21828;BME280;11076;47.942;11.804;2023-12-20T12:31:27;94246.94;;;4.68;42.27
21828;BME280;11076;47.942;11.804;2023-12-20T12:36:30;94233.13;;;4.60;42.14
21828;BME280;11076;47.942;11.804;2023-12-20T12:41:32;94234.19;;;4.59;42.34
21828;BME280;11076;47.942;11.804;2023-12-20T12:46:35;94223.56;;;4.84;42.17
21828;BME280;11076;47.942;11.804;2023-12-20T12:51:38;94225.63;;;4.72;42.33
21828;BME280;11076;47.942;11.804;2023-12-20T12:56:40;94221.06;;;5.30;41.44
21828;BME280;11076;47.942;11.804;2023-12-20T13:01:43;94212.88;;;5.05;41.59
21828;BME280;11076;47.942;11.804;2023-12-20T13:06:45;94211.28;;;5.09;41.18
21828;BME280;11076;47.942;11.804;2023-12-20T13:11:49;94203.06;;;4.88;41.59
21828;BME280;11076;47.942;11.804;2023-12-20T13:16:52;94194.75;;;4.95;41.31
21828;BME280;11076;47.942;11.804;2023-12-20T13:21:54;94184.22;;;4.94;41.49
21828;BME280;11076;47.942;11.804;2023-12-20T13:26:57;94183.94;;;4.95;41.29
21828;BME280;11076;47.942;11.804;2023-12-20T13:31:59;94186.88;;;4.88;41.30
21828;BME280;11076;47.942;11.804;2023-12-20T13:37:01;94189.59;;;4.94;41.13
21828;BME280;11076;47.942;11.804;2023-12-20T13:42:05;94198.22;;;4.85;41.22
21828;BME280;11076;47.942;11.804;2023-12-20T13:47:07;94188.34;;;4.64;41.52
21828;BME280;11076;47.942;11.804;2023-12-20T13:52:10;94199.16;;;4.69;41.45
21828;BME280;11076;47.942;11.804;2023-12-20T13:57:12;94191.88;;;4.69;41.14
21828;BME280;11076;47.942;11.804;2023-12-20T14:02:17;94193.78;;;4.74;40.92
21828;BME280;11076;47.942;11.804;2023-12-20T14:07:19;94197.00;;;4.71;41.07
21828;BME280;11076;47.942;11.804;2023-12-20T14:12:23;94193.75;;;4.64;40.94
21828;BME280;11076;47.942;11.804;2023-12-20T14:17:26;94208.41;;;4.36;41.49
21828;BME280;11076;47.942;11.804;2023-12-20T14:22:28;94236.72;;;3.51;41.83
21828;BME280;11076;47.942;11.804;2023-12-20T14:27:31;94257.81;;;2.88;42.87
21828;BME280;11076;47.942;11.804;2023-12-20T14:32:34;94273.81;;;2.44;43.57
21828;BME280;11076;47.942;11.804;2023-12-20T14:37:40;94280.34;;;2.48;43.45
21828;BME280;11076;47.942;11.804;2023-12-20T14:42:43;94273.00;;;2.61;43.08
21828;BME280;11076;47.942;11.804;2023-12-20T14:47:46;94280.34;;;2.65;43.44
21828;BME280;11076;47.942;11.804;2023-12-20T14:52:51;94290.91;;;2.72;43.07
21828;BME280;11076;47.942;11.804;2023-12-20T14:57:55;94273.19;;;2.93;42.89
21828;BME280;11076;47.942;11.804;2023-12-20T15:02:57;94281.47;;;2.86;43.35
21828;BME280;11076;47.942;11.804;2023-12-20T15:08:00;94280.50;;;2.98;43.12
21828;BME280;11076;47.942;11.804;2023-12-20T15:13:02;94281.28;;;2.93;43.09
21828;BME280;11076;47.942;11.804;2023-12-20T15:18:05;94283.22;;;3.20;42.73
21828;BME280;11076;47.942;11.804;2023-12-20T15:23:08;94288.88;;;3.40;42.41
21828;BME280;11076;47.942;11.804;2023-12-20T15:28:10;94276.78;;;3.43;42.72
21828;BME280;11076;47.942;11.804;2023-12-20T15:33:13;94282.50;;;3.24;42.60
21828;BME280;11076;47.942;11.804;2023-12-20T15:38:15;94276.41;;;3.12;42.77
21828;BME280;11076;47.942;11.804;2023-12-20T15:43:19;94271.63;;;2.97;43.20
21828;BME280;11076;47.942;11.804;2023-12-20T15:48:21;94273.56;;;3.02;42.74
21828;BME280;11076;47.942;11.804;2023-12-20T15:53:30;94272.19;;;2.99;42.58
21828;BME280;11076;47.942;11.804;2023-12-20T15:58:32;94282.03;;;2.88;43.00
21828;BME280;11076;47.942;11.804;2023-12-20T16:03:35;94286.97;;;2.97;43.04
21828;BME280;11076;47.942;11.804;2023-12-20T16:08:40;94283.34;;;3.08;42.92
21828;BME280;11076;47.942;11.804;2023-12-20T16:13:42;94274.97;;;3.04;42.75
21828;BME280;11076;47.942;11.804;2023-12-20T16:18:45;94290.06;;;3.27;42.61
21828;BME280;11076;47.942;11.804;2023-12-20T16:23:47;94291.38;;;3.47;42.31
21828;BME280;11076;47.942;11.804;2023-12-20T16:28:50;94290.69;;;3.57;41.96
21828;BME280;11076;47.942;11.804;2023-12-20T16:33:52;94294.00;;;3.42;42.38
21828;BME280;11076;47.942;11.804;2023-12-20T16:38:55;94288.88;;;3.18;42.75
21828;BME280;11076;47.942;11.804;2023-12-20T16:43:57;94282.81;;;3.28;42.38
21828;BME280;11076;47.942;11.804;2023-12-20T16:48:59;94297.88;;;3.07;42.85
21828;BME280;11076;47.942;11.804;2023-12-20T16:54:02;94299.88;;;2.95;42.78
21828;BME280;11076;47.942;11.804;2023-12-20T16:59:04;94311.13;;;2.91;42.91
21828;BME280;11076;47.942;11.804;2023-12-20T17:04:07;94308.06;;;3.05;42.35
21828;BME280;11076;47.942;11.804;2023-12-20T17:09:10;94312.91;;;3.03;42.56
21828;BME280;11076;47.942;11.804;2023-12-20T17:14:13;94320.59;;;2.94;42.50
21828;BME280;11076;47.942;11.804;2023-12-20T17:19:15;94326.47;;;2.91;42.28
21828;BME280;11076;47.942;11.804;2023-12-20T17:24:18;94322.63;;;2.87;42.09
21828;BME280;11076;47.942;11.804;2023-12-20T17:29:20;94330.19;;;3.07;41.97
21828;BME280;11076;47.942;11.804;2023-12-20T17:34:22;94326.47;;;2.74;41.86
21828;BME280;11076;47.942;11.804;2023-12-20T17:39:25;94337.28;;;2.45;41.96
21828;BME280;11076;47.942;11.804;2023-12-20T17:44:27;94334.03;;;2.43;41.41
21828;BME280;11076;47.942;11.804;2023-12-20T17:49:30;94341.25;;;2.26;41.42
21828;BME280;11076;47.942;11.804;2023-12-20T17:54:34;94352.13;;;2.02;41.79
21828;BME280;11076;47.942;11.804;2023-12-20T17:59:37;94354.41;;;1.65;41.60
21828;BME280;11076;47.942;11.804;2023-12-20T18:04:42;94337.97;;;1.49;41.35
21828;BME280;11076;47.942;11.804;2023-12-20T18:09:45;94350.13;;;1.28;41.63
21828;BME280;11076;47.942;11.804;2023-12-20T18:14:47;94359.13;;;1.46;41.23
21828;BME280;11076;47.942;11.804;2023-12-20T18:19:50;94361.63;;;1.64;40.58
21828;BME280;11076;47.942;11.804;2023-12-20T18:24:53;94352.38;;;1.08;41.17
21828;BME280;11076;47.942;11.804;2023-12-20T18:29:57;94367.63;;;1.43;40.71
21828;BME280;11076;47.942;11.804;2023-12-20T18:35:09;94374.06;;;1.42;40.41
21828;BME280;11076;47.942;11.804;2023-12-20T18:40:12;94364.34;;;1.29;40.02
21828;BME280;11076;47.942;11.804;2023-12-20T18:45:14;94369.88;;;1.22;40.00
21828;BME280;11076;47.942;11.804;2023-12-20T18:50:17;94381.66;;;1.21;40.08
21828;BME280;11076;47.942;11.804;2023-12-20T18:55:19;94382.25;;;1.23;40.46
21828;BME280;11076;47.942;11.804;2023-12-20T19:00:21;94377.34;;;1.20;40.37
21828;BME280;11076;47.942;11.804;2023-12-20T19:05:24;94382.13;;;1.18;40.56
21828;BME280;11076;47.942;11.804;2023-12-20T19:10:29;94351.31;;;1.21;41.09
21828;BME280;11076;47.942;11.804;2023-12-20T19:15:31;94359.38;;;1.32;41.06
21828;BME280;11076;47.942;11.804;2023-12-20T19:20:33;94349.22;;;1.35;41.04
21828;BME280;11076;47.942;11.804;2023-12-20T19:25:36;94341.50;;;1.14;41.03
21828;BME280;11076;47.942;11.804;2023-12-20T19:30:38;94334.22;;;1.50;39.79
21828;BME280;11076;47.942;11.804;2023-12-20T19:35:41;94327.78;;;1.63;39.94
21828;BME280;11076;47.942;11.804;2023-12-20T19:40:43;94328.81;;;1.62;39.74
21828;BME280;11076;47.942;11.804;2023-12-20T19:45:46;94329.41;;;1.64;39.29
21828;BME280;11076;47.942;11.804;2023-12-20T19:50:48;94316.63;;;1.43;39.75
21828;BME280;11076;47.942;11.804;2023-12-20T19:55:55;94302.53;;;1.36;39.76
21828;BME280;11076;47.942;11.804;2023-12-20T20:00:57;94302.13;;;1.56;39.80
21828;BME280;11076;47.942;11.804;2023-12-20T20:05:59;94293.25;;;1.55;39.09
21828;BME280;11076;47.942;11.804;2023-12-20T20:11:02;94287.47;;;1.92;38.66
21828;BME280;11076;47.942;11.804;2023-12-20T20:16:05;94284.31;;;1.95;38.15
21828;BME280;11076;47.942;11.804;2023-12-20T20:21:07;94281.72;;;2.17;37.10
21828;BME280;11076;47.942;11.804;2023-12-20T20:26:10;94268.91;;;2.41;37.01
21828;BME280;11076;47.942;11.804;2023-12-20T20:31:12;94264.69;;;2.11;37.12
21828;BME280;11076;47.942;11.804;2023-12-20T20:36:15;94252.03;;;2.12;36.90
21828;BME280;11076;47.942;11.804;2023-12-20T20:41:18;94264.84;;;2.22;37.15
21828;BME280;11076;47.942;11.804;2023-12-20T20:46:20;94268.13;;;2.41;36.32
21828;BME280;11076;47.942;11.804;2023-12-20T20:51:26;94272.00;;;2.50;36.44
21828;BME280;11076;47.942;11.804;2023-12-20T20:56:29;94268.50;;;2.49;36.18
21828;BME280;11076;47.942;11.804;2023-12-20T21:01:32;94269.09;;;2.35;36.28
21828;BME280;11076;47.942;11.804;2023-12-20T21:06:34;94257.59;;;2.39;36.31
21828;BME280;11076;47.942;11.804;2023-12-20T21:11:37;94260.53;;;2.38;36.01
21828;BME280;11076;47.942;11.804;2023-12-20T21:16:39;94249.34;;;2.46;36.13
21828;BME280;11076;47.942;11.804;2023-12-20T21:21:42;94242.34;;;2.45;36.00
21828;BME280;11076;47.942;11.804;2023-12-20T21:26:44;94239.56;;;2.40;35.89
21828;BME280;11076;47.942;11.804;2023-12-20T21:31:47;94239.59;;;2.06;36.41
21828;BME280;11076;47.942;11.804;2023-12-20T21:36:49;94247.50;;;2.12;35.96
21828;BME280;11076;47.942;11.804;2023-12-20T21:41:51;94237.31;;;2.48;35.93
21828;BME280;11076;47.942;11.804;2023-12-20T21:46:54;94216.69;;;2.37;35.73
21828;BME280;11076;47.942;11.804;2023-12-20T21:51:56;94220.84;;;2.45;35.57
21828;BME280;11076;47.942;11.804;2023-12-20T21:56:59;94201.03;;;2.34;35.94
21828;BME280;11076;47.942;11.804;2023-12-20T22:02:01;94201.03;;;2.34;35.63
21828;BME280;11076;47.942;11.804;2023-12-20T22:07:04;94212.91;;;2.38;35.53
21828;BME280;11076;47.942;11.804;2023-12-20T22:12:07;94194.47;;;2.25;35.47
21828;BME280;11076;47.942;11.804;2023-12-20T22:17:09;94192.81;;;2.24;35.96
21828;BME280;11076;47.942;11.804;2023-12-20T22:22:12;94189.25;;;2.01;36.40
21828;BME280;11076;47.942;11.804;2023-12-20T22:27:15;94192.44;;;2.15;35.61
21828;BME280;11076;47.942;11.804;2023-12-20T22:32:17;94196.97;;;2.31;35.46
21828;BME280;11076;47.942;11.804;2023-12-20T22:37:20;94176.13;;;2.22;35.37
21828;BME280;11076;47.942;11.804;2023-12-20T22:42:22;94177.16;;;2.38;35.44
21828;BME280;11076;47.942;11.804;2023-12-20T22:47:24;94165.78;;;2.13;35.33
21828;BME280;11076;47.942;11.804;2023-12-20T22:52:27;94157.38;;;2.27;35.42
21828;BME280;11076;47.942;11.804;2023-12-20T22:57:30;94146.06;;;2.25;35.66
21828;BME280;11076;47.942;11.804;2023-12-20T23:02:32;94139.69;;;2.31;35.02
21828;BME280;11076;47.942;11.804;2023-12-20T23:07:34;94130.13;;;2.40;35.21
21828;BME280;11076;47.942;11.804;2023-12-20T23:12:38;94137.44;;;2.23;34.66
21828;BME280;11076;47.942;11.804;2023-12-20T23:17:41;94112.72;;;2.65;34.45
21828;BME280;11076;47.942;11.804;2023-12-20T23:22:43;94089.41;;;2.53;34.74
21828;BME280;11076;47.942;11.804;2023-12-20T23:27:46;94104.63;;;2.87;34.35
21828;BME280;11076;47.942;11.804;2023-12-20T23:32:50;94092.78;;;2.22;34.80
21828;BME280;11076;47.942;11.804;2023-12-20T23:37:52;94079.59;;;2.42;34.36
21828;BME280;11076;47.942;11.804;2023-12-20T23:42:55;94082.75;;;2.78;34.16
21828;BME280;11076;47.942;11.804;2023-12-20T23:47:57;94074.88;;;2.99;33.99
21828;BME280;11076;47.942;11.804;2023-12-20T23:53:00;94069.41;;;2.88;34.07
21828;BME280;11076;47.942;11.804;2023-12-20T23:58:02;94051.97;;;2.25;34.14
